sensor_id;sensor_type;location;lat;lon;timestamp;pressure;altitude;pressure_sealevel;temperature;humidity
59767;BME280;46248;58.364;25.582;2023-03-19T00:03:16;100848.88;;;4.18;69.28
59767;BME280;46248;58.364;25.582;2023-03-19T00:06:38;100849.66;;;4.20;69.44
59767;BME280;46248;58.364;25.582;2023-03-19T00:10:00;100849.72;;;4.17;69.25
59767;BME280;46248;58.364;25.582;2023-03-19T00:13:22;100849.78;;;4.16;69.06
59767;BME280;46248;58.364;25.582;2023-03-19T00:16:45;100853.16;;;4.19;68.71
59767;BME280;46248;58.364;25.582;2023-03-19T00:20:09;100841.09;;;4.18;69.90
59767;BME280;46248;58.364;25.582;2023-03-19T00:23:31;100838.50;;;4.17;69.78
59767;BME280;46248;58.364;25.582;2023-03-19T00:26:52;100841.09;;;4.18;69.73
59767;BME280;46248;58.364;25.582;2023-03-19T00:30:15;100833.31;;;4.17;70.67
59767;BME280;46248;58.364;25.582;2023-03-19T00:33:38;100840.25;;;4.18;69.64
59767;BME280;46248;58.364;25.582;2023-03-19T00:37:00;100825.66;;;4.12;70.51
59767;BME280;46248;58.364;25.582;2023-03-19T00:40:22;100817.81;;;4.15;69.80
59767;BME280;46248;58.364;25.582;2023-03-19T00:43:45;100812.78;;;4.07;70.47
59767;BME280;46248;58.364;25.582;2023-03-19T00:47:07;100822.13;;;4.16;70.81
59767;BME280;46248;58.364;25.582;2023-03-19T00:50:30;100819.56;;;4.15;70.80
59767;BME280;46248;58.364;25.582;2023-03-19T00:53:53;100817.84;;;4.13;70.79
59767;BME280;46248;58.364;25.582;2023-03-19T00:57:14;100811.84;;;4.11;70.46
59767;BME280;46248;58.364;25.582;2023-03-19T01:00:37;100812.75;;;4.09;70.94
59767;BME280;46248;58.364;25.582;2023-03-19T01:03:59;100806.69;;;4.08;71.35
59767;BME280;46248;58.364;25.582;2023-03-19T01:07:22;100800.84;;;4.00;71.60
59767;BME280;46248;58.364;25.582;2023-03-19T01:10:45;100814.47;;;4.08;71.51
59767;BME280;46248;58.364;25.582;2023-03-19T01:14:07;100824.00;;;4.08;70.91
59767;BME280;46248;58.364;25.582;2023-03-19T01:17:29;100810.22;;;4.06;70.99
59767;BME280;46248;58.364;25.582;2023-03-19T01:20:51;100805.13;;;4.03;71.64
59767;BME280;46248;58.364;25.582;2023-03-19T01:24:15;100777.91;;;3.80;72.02
59767;BME280;46248;58.364;25.582;2023-03-19T01:27:36;100817.25;;;3.99;72.29
59767;BME280;46248;58.364;25.582;2023-03-19T01:30:59;100801.03;;;3.89;71.96
59767;BME280;46248;58.364;25.582;2023-03-19T01:34:21;100813.84;;;3.97;72.11
59767;BME280;46248;58.364;25.582;2023-03-19T01:37:43;100804.53;;;3.87;71.91
59767;BME280;46248;58.364;25.582;2023-03-19T01:41:06;100814.75;;;3.95;72.32
59767;BME280;46248;58.364;25.582;2023-03-19T01:44:31;100808.78;;;3.91;72.85
59767;BME280;46248;58.364;25.582;2023-03-19T01:47:53;100808.78;;;3.91;72.43
59767;BME280;46248;58.364;25.582;2023-03-19T01:51:17;100809.59;;;3.93;72.62
59767;BME280;46248;58.364;25.582;2023-03-19T01:54:42;100794.16;;;3.87;72.71
59767;BME280;46248;58.364;25.582;2023-03-19T01:58:07;100799.28;;;3.92;73.23
59767;BME280;46248;58.364;25.582;2023-03-19T02:01:33;100800.97;;;3.93;73.11
59767;BME280;46248;58.364;25.582;2023-03-19T02:04:59;100794.94;;;3.92;72.89
59767;BME280;46248;58.364;25.582;2023-03-19T02:08:23;100803.56;;;3.94;73.42
59767;BME280;46248;58.364;25.582;2023-03-19T02:11:46;100794.03;;;3.95;73.29
59767;BME280;46248;58.364;25.582;2023-03-19T02:15:10;100795.84;;;3.91;73.49
59767;BME280;46248;58.364;25.582;2023-03-19T02:18:32;100803.50;;;3.97;73.35
59767;BME280;46248;58.364;25.582;2023-03-19T02:21:54;100782.16;;;3.84;73.30
59767;BME280;46248;58.364;25.582;2023-03-19T02:25:23;100788.13;;;3.86;73.98
59767;BME280;46248;58.364;25.582;2023-03-19T02:28:50;100795.00;;;3.90;74.43
59767;BME280;46248;58.364;25.582;2023-03-19T02:32:12;100801.88;;;3.92;73.56
59767;BME280;46248;58.364;25.582;2023-03-19T02:35:35;100788.97;;;3.88;73.91
59767;BME280;46248;58.364;25.582;2023-03-19T02:38:59;100793.25;;;3.89;73.66
59767;BME280;46248;58.364;25.582;2023-03-19T02:42:26;100783.91;;;3.82;74.53
59767;BME280;46248;58.364;25.582;2023-03-19T02:45:51;100796.69;;;3.90;74.14
59767;BME280;46248;58.364;25.582;2023-03-19T02:49:13;100794.16;;;3.88;74.63
59767;BME280;46248;58.364;25.582;2023-03-19T02:52:35;100795.06;;;3.87;73.77
59767;BME280;46248;58.364;25.582;2023-03-19T02:55:57;100795.97;;;3.85;74.29
59767;BME280;46248;58.364;25.582;2023-03-19T02:59:19;100796.03;;;3.80;74.18
59767;BME280;46248;58.364;25.582;2023-03-19T03:02:43;100797.78;;;3.80;74.40
59767;BME280;46248;58.364;25.582;2023-03-19T03:06:06;100790.94;;;3.76;75.03
59767;BME280;46248;58.364;25.582;2023-03-19T03:09:27;100772.94;;;3.70;74.25
59767;BME280;46248;58.364;25.582;2023-03-19T03:12:50;100774.75;;;3.64;74.83
59767;BME280;46248;58.364;25.582;2023-03-19T03:16:13;100778.97;;;3.70;74.86
59767;BME280;46248;58.364;25.582;2023-03-19T03:19:36;100778.91;;;3.73;75.66
59767;BME280;46248;58.364;25.582;2023-03-19T03:22:58;100778.13;;;3.70;75.44
59767;BME280;46248;58.364;25.582;2023-03-19T03:26:20;100776.31;;;3.73;75.38
59767;BME280;46248;58.364;25.582;2023-03-19T03:29:42;100782.34;;;3.74;75.84
59767;BME280;46248;58.364;25.582;2023-03-19T03:33:04;100771.19;;;3.70;76.27
59767;BME280;46248;58.364;25.582;2023-03-19T03:36:28;100771.31;;;3.64;75.86
59767;BME280;46248;58.364;25.582;2023-03-19T03:39:50;100783.34;;;3.66;76.42
59767;BME280;46248;58.364;25.582;2023-03-19T03:43:12;100781.66;;;3.64;76.31
59767;BME280;46248;58.364;25.582;2023-03-19T03:46:35;100778.25;;;3.62;76.91
59767;BME280;46248;58.364;25.582;2023-03-19T03:49:57;100770.59;;;3.56;76.67
59767;BME280;46248;58.364;25.582;2023-03-19T03:53:20;100785.19;;;3.60;76.70
59767;BME280;46248;58.364;25.582;2023-03-19T03:56:42;100782.63;;;3.58;77.61
59767;BME280;46248;58.364;25.582;2023-03-19T04:00:05;100782.59;;;3.60;76.87
59767;BME280;46248;58.364;25.582;2023-03-19T04:03:27;100783.47;;;3.60;77.50
59767;BME280;46248;58.364;25.582;2023-03-19T04:06:49;100781.78;;;3.56;77.38
59767;BME280;46248;58.364;25.582;2023-03-19T04:10:13;100780.16;;;3.52;76.72
59767;BME280;46248;58.364;25.582;2023-03-19T04:13:38;100780.22;;;3.49;77.43
59767;BME280;46248;58.364;25.582;2023-03-19T04:17:00;100792.31;;;3.47;77.78
59767;BME280;46248;58.364;25.582;2023-03-19T04:20:22;100777.78;;;3.38;77.53
59767;BME280;46248;58.364;25.582;2023-03-19T04:23:45;100782.06;;;3.41;77.48
59767;BME280;46248;58.364;25.582;2023-03-19T04:27:08;100777.72;;;3.43;77.37
59767;BME280;46248;58.364;25.582;2023-03-19T04:30:31;100794.09;;;3.45;77.79
59767;BME280;46248;58.364;25.582;2023-03-19T04:33:54;100786.28;;;3.47;78.54
59767;BME280;46248;58.364;25.582;2023-03-19T04:37:17;100776.09;;;3.39;78.17
59767;BME280;46248;58.364;25.582;2023-03-19T04:40:40;100751.16;;;3.33;77.78
59767;BME280;46248;58.364;25.582;2023-03-19T04:44:04;100785.34;;;3.52;78.20
59767;BME280;46248;58.364;25.582;2023-03-19T04:47:27;100772.44;;;3.49;77.73
59767;BME280;46248;58.364;25.582;2023-03-19T04:50:48;100787.88;;;3.55;78.49
59767;BME280;46248;58.364;25.582;2023-03-19T04:54:12;100785.22;;;3.58;77.49
59767;BME280;46248;58.364;25.582;2023-03-19T04:57:34;100782.59;;;3.60;78.13
59767;BME280;46248;58.364;25.582;2023-03-19T05:00:58;100787.72;;;3.63;77.73
59767;BME280;46248;58.364;25.582;2023-03-19T05:04:20;100780.00;;;3.61;77.92
59767;BME280;46248;58.364;25.582;2023-03-19T05:07:42;100772.28;;;3.58;78.44
59767;BME280;46248;58.364;25.582;2023-03-19T05:11:04;100782.47;;;3.67;77.65
59767;BME280;46248;58.364;25.582;2023-03-19T05:14:27;100785.84;;;3.71;77.50
59767;BME280;46248;58.364;25.582;2023-03-19T05:17:50;100790.97;;;3.74;78.40
59767;BME280;46248;58.364;25.582;2023-03-19T05:21:12;100790.94;;;3.76;77.34
59767;BME280;46248;58.364;25.582;2023-03-19T05:24:35;100802.88;;;3.84;77.98
59767;BME280;46248;58.364;25.582;2023-03-19T05:27:57;100806.13;;;3.94;77.25
59767;BME280;46248;58.364;25.582;2023-03-19T05:31:19;100810.22;;;4.06;77.77
59767;BME280;46248;58.364;25.582;2023-03-19T05:34:42;100805.78;;;4.12;76.93
59767;BME280;46248;58.364;25.582;2023-03-19T05:38:04;100804.81;;;4.18;77.02
59767;BME280;46248;58.364;25.582;2023-03-19T05:41:27;100805.53;;;4.25;77.17
59767;BME280;46248;58.364;25.582;2023-03-19T05:44:48;100814.09;;;4.28;77.03
59767;BME280;46248;58.364;25.582;2023-03-19T05:48:10;100806.25;;;4.31;76.98
59767;BME280;46248;58.364;25.582;2023-03-19T05:51:34;100791.72;;;4.23;76.83
59767;BME280;46248;58.364;25.582;2023-03-19T05:54:56;100818.28;;;4.34;77.08
59767;BME280;46248;58.364;25.582;2023-03-19T05:58:18;100817.38;;;4.36;76.80
59767;BME280;46248;58.364;25.582;2023-03-19T06:01:40;100808.75;;;4.36;76.15
59767;BME280;46248;58.364;25.582;2023-03-19T06:05:04;100815.59;;;4.39;76.84
59767;BME280;46248;58.364;25.582;2023-03-19T06:08:28;100804.34;;;4.40;77.08
59767;BME280;46248;58.364;25.582;2023-03-19T06:11:49;100806.03;;;4.42;76.59
59767;BME280;46248;58.364;25.582;2023-03-19T06:15:11;100805.91;;;4.47;76.46
59767;BME280;46248;58.364;25.582;2023-03-19T06:18:33;100812.72;;;4.52;76.48
59767;BME280;46248;58.364;25.582;2023-03-19T06:21:56;100815.16;;;4.60;76.19
59767;BME280;46248;58.364;25.582;2023-03-19T06:25:19;100810.72;;;4.65;76.59
59767;BME280;46248;58.364;25.582;2023-03-19T06:28:41;100816.66;;;4.69;76.18
59767;BME280;46248;58.364;25.582;2023-03-19T06:32:03;100814.88;;;4.72;75.99
59767;BME280;46248;58.364;25.582;2023-03-19T06:35:25;100809.66;;;4.74;75.98
59767;BME280;46248;58.364;25.582;2023-03-19T06:38:46;100816.47;;;4.78;76.33
59767;BME280;46248;58.364;25.582;2023-03-19T06:42:10;100813.03;;;4.77;76.10
59767;BME280;46248;58.364;25.582;2023-03-19T06:45:32;100817.22;;;4.83;76.31
59767;BME280;46248;58.364;25.582;2023-03-19T06:48:54;100824.09;;;4.84;76.45
59767;BME280;46248;58.364;25.582;2023-03-19T06:52:16;100791.69;;;4.66;75.91
59767;BME280;46248;58.364;25.582;2023-03-19T06:55:38;100818.13;;;4.82;76.26
59767;BME280;46248;58.364;25.582;2023-03-19T06:59:01;100818.91;;;4.86;76.01
59767;BME280;46248;58.364;25.582;2023-03-19T07:02:24;100823.19;;;4.87;76.33
59767;BME280;46248;58.364;25.582;2023-03-19T07:05:47;100825.78;;;4.87;76.70
59767;BME280;46248;58.364;25.582;2023-03-19T07:09:11;100825.06;;;4.81;77.29
59767;BME280;46248;58.364;25.582;2023-03-19T07:12:34;100818.06;;;4.83;77.35
59767;BME280;46248;58.364;25.582;2023-03-19T07:15:57;100832.50;;;4.97;77.69
59767;BME280;46248;58.364;25.582;2023-03-19T07:19:19;100840.16;;;5.01;77.29
59767;BME280;46248;58.364;25.582;2023-03-19T07:22:42;100845.28;;;5.04;77.89
59767;BME280;46248;58.364;25.582;2023-03-19T07:26:05;100845.19;;;5.08;77.80
59767;BME280;46248;58.364;25.582;2023-03-19T07:29:27;100851.22;;;5.10;77.16
59767;BME280;46248;58.364;25.582;2023-03-19T07:32:50;100858.09;;;5.12;77.41
59767;BME280;46248;58.364;25.582;2023-03-19T07:36:13;100852.97;;;5.09;77.47
59767;BME280;46248;58.364;25.582;2023-03-19T07:39:35;100859.03;;;5.08;77.27
59767;BME280;46248;58.364;25.582;2023-03-19T07:42:57;100865.03;;;5.10;77.02
59767;BME280;46248;58.364;25.582;2023-03-19T07:46:19;100859.84;;;5.10;77.07
59767;BME280;46248;58.364;25.582;2023-03-19T07:49:42;100859.75;;;5.15;77.18
59767;BME280;46248;58.364;25.582;2023-03-19T07:53:04;100859.69;;;5.18;77.18
59767;BME280;46248;58.364;25.582;2023-03-19T07:56:26;100859.63;;;5.19;76.88
59767;BME280;46248;58.364;25.582;2023-03-19T07:59:47;100853.34;;;5.30;77.40
59767;BME280;46248;58.364;25.582;2023-03-19T08:03:09;100851.34;;;5.41;77.08
59767;BME280;46248;58.364;25.582;2023-03-19T08:06:33;100847.66;;;5.49;76.44
59767;BME280;46248;58.364;25.582;2023-03-19T08:09:55;100858.72;;;5.58;76.02
59767;BME280;46248;58.364;25.582;2023-03-19T08:13:17;100852.59;;;5.60;75.97
59767;BME280;46248;58.364;25.582;2023-03-19T08:16:39;100856.88;;;5.61;75.64
59767;BME280;46248;58.364;25.582;2023-03-19T08:20:02;100855.13;;;5.63;75.82
59767;BME280;46248;58.364;25.582;2023-03-19T08:23:25;100863.69;;;5.67;75.73
59767;BME280;46248;58.364;25.582;2023-03-19T08:26:47;100857.63;;;5.66;75.55
59767;BME280;46248;58.364;25.582;2023-03-19T08:30:10;100856.13;;;5.58;75.47
59767;BME280;46248;58.364;25.582;2023-03-19T08:33:33;100856.88;;;5.63;75.18
59767;BME280;46248;58.364;25.582;2023-03-19T08:36:55;100865.50;;;5.63;75.15
59767;BME280;46248;58.364;25.582;2023-03-19T08:40:19;100860.31;;;5.63;75.40
59767;BME280;46248;58.364;25.582;2023-03-19T08:43:41;100858.44;;;5.68;75.14
59767;BME280;46248;58.364;25.582;2023-03-19T08:47:03;100864.34;;;5.75;74.72
59767;BME280;46248;58.364;25.582;2023-03-19T08:50:25;100871.09;;;5.81;74.69
59767;BME280;46248;58.364;25.582;2023-03-19T08:53:47;100861.50;;;5.84;74.02
59767;BME280;46248;58.364;25.582;2023-03-19T08:57:10;100863.19;;;5.85;74.25
59767;BME280;46248;58.364;25.582;2023-03-19T09:00:32;100853.66;;;5.86;73.89
59767;BME280;46248;58.364;25.582;2023-03-19T09:03:55;100860.53;;;5.88;73.87
59767;BME280;46248;58.364;25.582;2023-03-19T09:07:16;100853.44;;;5.95;74.03
59767;BME280;46248;58.364;25.582;2023-03-19T09:10:38;100863.75;;;5.98;73.69
59767;BME280;46248;58.364;25.582;2023-03-19T09:14:01;100861.28;;;5.93;73.74
59767;BME280;46248;58.364;25.582;2023-03-19T09:17:23;100864.81;;;5.89;73.60
59767;BME280;46248;58.364;25.582;2023-03-19T09:20:45;100871.69;;;5.93;73.74
59767;BME280;46248;58.364;25.582;2023-03-19T09:24:08;100866.41;;;5.96;73.71
59767;BME280;46248;58.364;25.582;2023-03-19T09:27:29;100862.06;;;5.97;73.44
59767;BME280;46248;58.364;25.582;2023-03-19T09:30:53;100862.75;;;6.04;73.59
59767;BME280;46248;58.364;25.582;2023-03-19T09:34:15;100869.56;;;6.08;73.08
59767;BME280;46248;58.364;25.582;2023-03-19T09:37:38;100865.19;;;6.10;72.86
59767;BME280;46248;58.364;25.582;2023-03-19T09:41:12;100871.97;;;6.14;72.78
59767;BME280;46248;58.364;25.582;2023-03-19T09:44:39;100875.56;;;6.10;73.03
59767;BME280;46248;58.364;25.582;2023-03-19T09:48:07;100872.13;;;6.09;72.79
59767;BME280;46248;58.364;25.582;2023-03-19T09:51:34;100872.06;;;6.11;72.70
59767;BME280;46248;58.364;25.582;2023-03-19T09:55:00;100872.88;;;6.14;72.88
59767;BME280;46248;58.364;25.582;2023-03-19T09:58:30;100872.63;;;6.22;72.51
59767;BME280;46248;58.364;25.582;2023-03-19T10:02:00;100868.25;;;6.24;72.91
59767;BME280;46248;58.364;25.582;2023-03-19T10:05:34;100876.69;;;6.32;72.74
59767;BME280;46248;58.364;25.582;2023-03-19T10:09:23;100885.38;;;6.31;72.45
59767;BME280;46248;58.364;25.582;2023-03-19T10:12:55;100885.31;;;6.34;72.28
59767;BME280;46248;58.364;25.582;2023-03-19T10:16:19;100886.78;;;6.45;73.02
59767;BME280;46248;58.364;25.582;2023-03-19T10:19:46;100884.56;;;6.60;72.44
59767;BME280;46248;58.364;25.582;2023-03-19T10:23:25;100872.81;;;6.77;71.29
59767;BME280;46248;58.364;25.582;2023-03-19T10:26:55;100850.22;;;6.77;71.20
59767;BME280;46248;58.364;25.582;2023-03-19T10:30:19;100884.69;;;7.14;70.83
59767;BME280;46248;58.364;25.582;2023-03-19T10:33:43;100886.88;;;7.27;70.53
59767;BME280;46248;58.364;25.582;2023-03-19T10:37:14;100873.88;;;7.26;69.50
59767;BME280;46248;58.364;25.582;2023-03-19T10:40:47;100873.41;;;7.15;69.97
59767;BME280;46248;58.364;25.582;2023-03-19T10:44:16;100888.88;;;7.19;69.90
59767;BME280;46248;58.364;25.582;2023-03-19T10:47:42;100886.53;;;7.10;68.68
59767;BME280;46248;58.364;25.582;2023-03-19T10:51:05;100887.56;;;7.06;69.94
59767;BME280;46248;58.364;25.582;2023-03-19T10:54:28;100883.09;;;7.09;69.82
59767;BME280;46248;58.364;25.582;2023-03-19T10:58:01;100889.16;;;7.10;69.53
59767;BME280;46248;58.364;25.582;2023-03-19T11:01:27;100872.69;;;7.09;69.88
59767;BME280;46248;58.364;25.582;2023-03-19T11:05:05;100881.44;;;7.07;68.95
59767;BME280;46248;58.364;25.582;2023-03-19T11:08:27;100888.31;;;7.09;69.41
59767;BME280;46248;58.364;25.582;2023-03-19T11:11:57;100879.56;;;7.12;69.66
59767;BME280;46248;58.364;25.582;2023-03-19T11:15:33;100895.72;;;7.22;70.06
59767;BME280;46248;58.364;25.582;2023-03-19T11:18:56;100886.97;;;7.24;70.10
59767;BME280;46248;58.364;25.582;2023-03-19T11:22:21;100871.38;;;7.23;69.17
59767;BME280;46248;58.364;25.582;2023-03-19T11:25:46;100883.16;;;7.34;69.48
59767;BME280;46248;58.364;25.582;2023-03-19T11:29:10;100880.56;;;7.34;69.65
59767;BME280;46248;58.364;25.582;2023-03-19T11:32:55;100882.03;;;7.43;68.35
59767;BME280;46248;58.364;25.582;2023-03-19T11:36:25;100882.00;;;7.45;68.92
59767;BME280;46248;58.364;25.582;2023-03-19T11:39:57;100877.63;;;7.45;69.00
59767;BME280;46248;58.364;25.582;2023-03-19T11:43:33;100870.44;;;7.52;68.73
59767;BME280;46248;58.364;25.582;2023-03-19T11:47:04;100873.78;;;7.57;67.76
59767;BME280;46248;58.364;25.582;2023-03-19T11:50:49;100874.41;;;7.64;68.22
59767;BME280;46248;58.364;25.582;2023-03-19T11:54:21;100870.84;;;7.66;68.45
59767;BME280;46248;58.364;25.582;2023-03-19T11:58:07;100876.81;;;7.70;67.36
59767;BME280;46248;58.364;25.582;2023-03-19T12:01:52;100870.03;;;7.64;68.03
59767;BME280;46248;58.364;25.582;2023-03-19T12:05:28;100887.34;;;7.67;68.11
59767;BME280;46248;58.364;25.582;2023-03-19T12:08:58;100885.53;;;7.69;68.42
59767;BME280;46248;58.364;25.582;2023-03-19T12:12:27;100872.50;;;7.69;68.00
59767;BME280;46248;58.364;25.582;2023-03-19T12:16:01;100876.31;;;7.58;68.31
59767;BME280;46248;58.364;25.582;2023-03-19T12:19:36;100876.41;;;7.55;68.61
59767;BME280;46248;58.364;25.582;2023-03-19T12:23:14;100885.94;;;7.56;67.98
59767;BME280;46248;58.364;25.582;2023-03-19T12:26:53;100882.63;;;7.51;68.47
59767;BME280;46248;58.364;25.582;2023-03-19T12:30:28;100889.63;;;7.49;69.20
59767;BME280;46248;58.364;25.582;2023-03-19T12:34:01;100878.97;;;7.57;68.56
59767;BME280;46248;58.364;25.582;2023-03-19T12:37:30;100872.03;;;7.56;68.14
59767;BME280;46248;58.364;25.582;2023-03-19T12:40:58;100870.44;;;7.52;68.66
59767;BME280;46248;58.364;25.582;2023-03-19T12:44:25;100866.16;;;7.51;68.47
59767;BME280;46248;58.364;25.582;2023-03-19T12:47:54;100861.72;;;7.53;68.51
59767;BME280;46248;58.364;25.582;2023-03-19T12:51:20;100860.22;;;7.46;68.12
59767;BME280;46248;58.364;25.582;2023-03-19T12:54:48;100866.16;;;7.51;68.77
59767;BME280;46248;58.364;25.582;2023-03-19T12:58:19;100862.75;;;7.49;68.28
59767;BME280;46248;58.364;25.582;2023-03-19T13:01:47;100854.06;;;7.48;68.36
59767;BME280;46248;58.364;25.582;2023-03-19T13:05:17;100860.13;;;7.49;68.55
59767;BME280;46248;58.364;25.582;2023-03-19T13:08:47;100857.56;;;7.47;68.35
59767;BME280;46248;58.364;25.582;2023-03-19T13:12:12;100849.72;;;7.49;68.65
59767;BME280;46248;58.364;25.582;2023-03-19T13:15:41;100859.91;;;7.56;69.12
59767;BME280;46248;58.364;25.582;2023-03-19T13:19:15;100855.88;;;7.46;68.98
59767;BME280;46248;58.364;25.582;2023-03-19T13:22:51;100862.53;;;7.55;68.45
59767;BME280;46248;58.364;25.582;2023-03-19T13:26:15;100852.81;;;7.60;68.98
59767;BME280;46248;58.364;25.582;2023-03-19T13:29:52;100854.19;;;7.70;68.50
59767;BME280;46248;58.364;25.582;2023-03-19T13:33:20;100855.03;;;7.71;69.07
59767;BME280;46248;58.364;25.582;2023-03-19T13:36:47;100844.59;;;7.72;68.91
59767;BME280;46248;58.364;25.582;2023-03-19T13:40:40;100845.34;;;7.74;68.63
59767;BME280;46248;58.364;25.582;2023-03-19T13:44:26;100841.88;;;7.75;68.83
59767;BME280;46248;58.364;25.582;2023-03-19T13:47:50;100849.69;;;7.75;68.07
59767;BME280;46248;58.364;25.582;2023-03-19T13:51:22;100844.41;;;7.77;68.50
59767;BME280;46248;58.364;25.582;2023-03-19T13:54:51;100835.91;;;7.72;67.90
59767;BME280;46248;58.364;25.582;2023-03-19T13:58:18;100838.78;;;7.64;68.88
59767;BME280;46248;58.364;25.582;2023-03-19T14:01:54;100850.22;;;7.60;68.48
59767;BME280;46248;58.364;25.582;2023-03-19T14:05:18;100845.22;;;7.54;69.11
59767;BME280;46248;58.364;25.582;2023-03-19T14:08:44;100849.56;;;7.53;68.79
59767;BME280;46248;58.364;25.582;2023-03-19T14:12:32;100819.00;;;7.32;69.32
59767;BME280;46248;58.364;25.582;2023-03-19T14:16:04;100843.13;;;7.39;69.91
59767;BME280;46248;58.364;25.582;2023-03-19T14:19:26;100856.25;;;7.36;70.38
59767;BME280;46248;58.364;25.582;2023-03-19T14:23:01;100859.78;;;7.33;70.72
59767;BME280;46248;58.364;25.582;2023-03-19T14:26:24;100848.56;;;7.31;70.81
59767;BME280;46248;58.364;25.582;2023-03-19T14:29:52;100849.56;;;7.27;70.63
59767;BME280;46248;58.364;25.582;2023-03-19T14:33:25;100842.81;;;7.21;70.89
59767;BME280;46248;58.364;25.582;2023-03-19T14:36:55;100843.91;;;7.14;71.17
59767;BME280;46248;58.364;25.582;2023-03-19T14:40:21;100844.00;;;7.11;71.40
59767;BME280;46248;58.364;25.582;2023-03-19T14:44:04;100853.59;;;7.09;71.05
59767;BME280;46248;58.364;25.582;2023-03-19T14:47:47;100855.59;;;7.01;72.49
59767;BME280;46248;58.364;25.582;2023-03-19T14:55:09;100853.56;;;6.82;72.77
59767;BME280;46248;58.364;25.582;2023-03-19T14:58:31;100846.78;;;6.77;73.24
59767;BME280;46248;58.364;25.582;2023-03-19T15:01:53;100847.06;;;6.68;73.07
59767;BME280;46248;58.364;25.582;2023-03-19T15:05:21;100843.44;;;6.72;73.46
59767;BME280;46248;58.364;25.582;2023-03-19T15:08:48;100843.44;;;6.72;73.35
59767;BME280;46248;58.364;25.582;2023-03-19T15:12:29;100854.84;;;6.69;73.69
59767;BME280;46248;58.364;25.582;2023-03-19T15:16:19;100859.31;;;6.64;74.83
59767;BME280;46248;58.364;25.582;2023-03-19T15:19:42;100860.34;;;6.58;75.36
59767;BME280;46248;58.364;25.582;2023-03-19T15:23:09;100845.84;;;6.50;74.77
59767;BME280;46248;58.364;25.582;2023-03-19T15:26:46;100852.06;;;6.44;75.11
59767;BME280;46248;58.364;25.582;2023-03-19T15:30:20;100839.13;;;6.42;75.44
59767;BME280;46248;58.364;25.582;2023-03-19T15:33:42;100839.97;;;6.43;75.44
59767;BME280;46248;58.364;25.582;2023-03-19T15:37:07;100840.06;;;6.40;75.33
59767;BME280;46248;58.364;25.582;2023-03-19T15:40:33;100839.25;;;6.38;75.33
59767;BME280;46248;58.364;25.582;2023-03-19T15:43:57;100842.03;;;6.32;75.62
59767;BME280;46248;58.364;25.582;2023-03-19T15:47:23;100844.78;;;6.27;75.92
59767;BME280;46248;58.364;25.582;2023-03-19T15:50:47;100850.94;;;6.23;76.24
59767;BME280;46248;58.364;25.582;2023-03-19T15:54:11;100851.09;;;6.17;76.18
59767;BME280;46248;58.364;25.582;2023-03-19T15:57:35;100851.25;;;6.12;77.23
59767;BME280;46248;58.364;25.582;2023-03-19T16:00:59;100852.19;;;6.10;76.81
59767;BME280;46248;58.364;25.582;2023-03-19T16:04:23;100848.84;;;6.05;76.96
59767;BME280;46248;58.364;25.582;2023-03-19T16:07:51;100854.13;;;6.02;77.75
59767;BME280;46248;58.364;25.582;2023-03-19T16:11:27;100859.47;;;5.97;78.21
59767;BME280;46248;58.364;25.582;2023-03-19T16:14:51;100866.63;;;5.87;78.47
59767;BME280;46248;58.364;25.582;2023-03-19T16:18:24;100864.22;;;5.80;79.16
59767;BME280;46248;58.364;25.582;2023-03-19T16:21:47;100864.38;;;5.73;79.42
59767;BME280;46248;58.364;25.582;2023-03-19T16:25:14;100866.28;;;5.67;79.87
59767;BME280;46248;58.364;25.582;2023-03-19T16:28:46;100869.88;;;5.61;80.32
59767;BME280;46248;58.364;25.582;2023-03-19T16:32:16;100876.84;;;5.59;82.08
59767;BME280;46248;58.364;25.582;2023-03-19T16:35:39;100880.56;;;5.49;81.24
59767;BME280;46248;58.364;25.582;2023-03-19T16:39:19;100888.47;;;5.44;82.12
59767;BME280;46248;58.364;25.582;2023-03-19T16:42:43;100884.16;;;5.43;83.94
59767;BME280;46248;58.364;25.582;2023-03-19T16:46:09;100883.34;;;5.41;82.21
59767;BME280;46248;58.364;25.582;2023-03-19T16:49:33;100881.78;;;5.36;82.71
59767;BME280;46248;58.364;25.582;2023-03-19T16:52:56;100866.50;;;5.22;83.09
59767;BME280;46248;58.364;25.582;2023-03-19T16:56:18;100874.94;;;5.32;82.85
59767;BME280;46248;58.364;25.582;2023-03-19T16:59:41;100887.00;;;5.34;83.05
59767;BME280;46248;58.364;25.582;2023-03-19T17:03:05;100875.91;;;5.27;83.54
59767;BME280;46248;58.364;25.582;2023-03-19T17:06:33;100888.81;;;5.31;83.55
59767;BME280;46248;58.364;25.582;2023-03-19T17:09:56;100887.00;;;5.34;83.60
59767;BME280;46248;58.364;25.582;2023-03-19T17:13:20;100870.78;;;5.24;83.91
59767;BME280;46248;58.364;25.582;2023-03-19T17:16:42;100878.50;;;5.27;83.93
59767;BME280;46248;58.364;25.582;2023-03-19T17:20:14;100893.16;;;5.30;83.44
59767;BME280;46248;58.364;25.582;2023-03-19T17:23:39;100888.88;;;5.27;83.80
59767;BME280;46248;58.364;25.582;2023-03-19T17:27:02;100893.16;;;5.28;83.71
59767;BME280;46248;58.364;25.582;2023-03-19T17:30:24;100881.25;;;5.20;83.78
59767;BME280;46248;58.364;25.582;2023-03-19T17:33:48;100882.84;;;5.25;84.01
59767;BME280;46248;58.364;25.582;2023-03-19T17:37:12;100894.16;;;5.24;84.49
59767;BME280;46248;58.364;25.582;2023-03-19T17:40:36;100890.78;;;5.19;84.18
59767;BME280;46248;58.364;25.582;2023-03-19T17:43:58;100890.84;;;5.18;84.68
59767;BME280;46248;58.364;25.582;2023-03-19T17:47:23;100889.16;;;5.15;84.67
59767;BME280;46248;58.364;25.582;2023-03-19T17:50:45;100884.06;;;5.11;84.71
59767;BME280;46248;58.364;25.582;2023-03-19T17:54:09;100869.41;;;5.08;84.50
59767;BME280;46248;58.364;25.582;2023-03-19T17:57:33;100862.53;;;5.07;84.36
59767;BME280;46248;58.364;25.582;2023-03-19T18:00:55;100879.63;;;5.16;84.75